createdAt,value
2023-01-08T00:00:20.709Z,8.20
2023-01-08T00:02:25.777Z,8.20
2023-01-08T00:04:31.050Z,8.30
2023-01-08T00:06:39.071Z,8.30
2023-01-08T00:08:44.402Z,8.40
2023-01-08T00:10:56.339Z,8.40
2023-01-08T00:13:01.320Z,8.40
2023-01-08T00:15:06.755Z,8.40
2023-01-08T00:17:11.759Z,8.50
2023-01-08T00:19:17.398Z,8.40
2023-01-08T00:21:22.389Z,8.50
2023-01-08T00:23:30.359Z,8.40
2023-01-08T00:25:35.420Z,8.40
2023-01-08T00:27:40.427Z,8.40
2023-01-08T00:29:45.531Z,8.30
2023-01-08T00:31:50.541Z,8.30
2023-01-08T00:33:55.554Z,8.30
2023-01-08T00:36:00.605Z,8.20
2023-01-08T00:38:05.659Z,8.20
2023-01-08T00:40:14.289Z,8.20
2023-01-08T00:42:19.274Z,8.20
2023-01-08T00:44:24.295Z,8.20
2023-01-08T00:46:29.289Z,8.30
2023-01-08T00:48:37.384Z,8.30
2023-01-08T00:50:42.704Z,8.30
2023-01-08T00:52:48.025Z,8.30
2023-01-08T00:54:53.069Z,8.30
2023-01-08T00:57:00.830Z,8.20
2023-01-08T00:59:05.880Z,8.20
2023-01-08T01:01:15.979Z,8.20
2023-01-08T01:03:21.350Z,8.20
2023-01-08T01:05:26.468Z,8.20
2023-01-08T01:07:31.921Z,8.20
2023-01-08T01:09:36.957Z,8.10
2023-01-08T01:11:42.503Z,8.10
2023-01-08T01:13:50.410Z,8.10
2023-01-08T01:16:01.852Z,8.10
2023-01-08T01:18:07.053Z,8.10
2023-01-08T01:20:16.856Z,8.10
2023-01-08T01:22:21.870Z,8.10
2023-01-08T01:24:28.230Z,8.10
2023-01-08T01:26:35.761Z,8.10
2023-01-08T01:28:40.868Z,8.10
2023-01-08T01:30:48.586Z,8.10
2023-01-08T01:32:53.537Z,8.10
2023-01-08T01:34:58.532Z,8.10
2023-01-08T01:37:04.572Z,8.10
2023-01-08T01:39:10.015Z,8.10
2023-01-08T01:41:27.120Z,8.10
2023-01-08T01:43:40.473Z,8.00
2023-01-08T01:45:48.625Z,8.00
2023-01-08T01:48:00.039Z,8.00
2023-01-08T01:50:11.161Z,8.00
2023-01-08T01:52:16.751Z,8.00
2023-01-08T01:54:22.972Z,8.00
2023-01-08T01:56:28.834Z,8.00
2023-01-08T01:58:35.812Z,8.00
2023-01-08T02:00:41.056Z,8.10
2023-01-08T02:02:48.789Z,8.10
2023-01-08T02:04:54.121Z,8.10
2023-01-08T02:07:08.872Z,8.10
2023-01-08T02:09:22.983Z,8.10
2023-01-08T02:11:41.949Z,8.20
2023-01-08T02:13:55.437Z,8.20
2023-01-08T02:16:09.671Z,8.20
2023-01-08T02:18:23.411Z,8.20
2023-01-08T02:20:34.316Z,8.20
2023-01-08T02:23:00.240Z,8.20
2023-01-08T02:25:13.329Z,8.20
2023-01-08T02:27:23.819Z,8.20
2023-01-08T02:29:31.822Z,8.20
2023-01-08T02:31:40.866Z,8.20
2023-01-08T02:33:46.136Z,8.20
2023-01-08T02:35:58.112Z,8.20
2023-01-08T02:38:02.996Z,8.20
2023-01-08T02:40:20.325Z,8.30
2023-01-08T02:42:42.547Z,8.20
2023-01-08T02:45:03.655Z,8.30
2023-01-08T02:47:13.711Z,8.30
2023-01-08T02:49:19.652Z,8.30
2023-01-08T02:51:30.860Z,8.30
2023-01-08T02:53:40.072Z,8.30
2023-01-08T02:55:52.308Z,8.30
2023-01-08T02:58:00.889Z,8.30
2023-01-08T03:00:07.221Z,8.40
2023-01-08T03:02:13.640Z,8.30
2023-01-08T03:04:23.596Z,8.40
2023-01-08T03:06:29.457Z,8.40
2023-01-08T03:08:37.267Z,8.40
2023-01-08T03:10:48.038Z,8.40
2023-01-08T03:13:02.036Z,8.40
2023-01-08T03:15:12.302Z,8.40
2023-01-08T03:17:26.468Z,8.40
2023-01-08T03:19:38.220Z,8.40
2023-01-08T03:21:45.160Z,8.40
2023-01-08T03:23:51.481Z,8.40
2023-01-08T03:25:56.365Z,8.40
2023-01-08T03:28:10.120Z,8.40
2023-01-08T03:30:17.333Z,8.40
2023-01-08T03:32:24.836Z,8.40
2023-01-08T03:34:31.573Z,8.30
2023-01-08T03:36:39.629Z,8.30
2023-01-08T03:38:50.096Z,8.30
2023-01-08T03:41:00.202Z,8.30
2023-01-08T03:43:07.858Z,8.30
2023-01-08T03:45:14.133Z,8.40
2023-01-08T03:47:21.007Z,8.30
2023-01-08T03:49:29.133Z,8.30
2023-01-08T03:51:43.338Z,8.30
2023-01-08T03:53:48.312Z,8.30
2023-01-08T03:55:53.323Z,8.40
2023-01-08T03:57:58.367Z,8.40
2023-01-08T04:00:07.490Z,8.30
2023-01-08T04:02:12.952Z,8.30
2023-01-08T04:04:18.070Z,8.30
2023-01-08T04:06:23.188Z,8.30
2023-01-08T04:08:28.121Z,8.30
2023-01-08T04:10:32.985Z,8.20
2023-01-08T04:12:37.952Z,8.30
2023-01-08T04:14:42.847Z,8.20
2023-01-08T04:16:50.664Z,8.30
2023-01-08T04:18:55.654Z,8.20
2023-01-08T04:21:00.556Z,8.30
2023-01-08T04:23:05.415Z,8.30
2023-01-08T04:25:11.597Z,8.20
2023-01-08T04:27:16.561Z,8.20
2023-01-08T04:29:22.697Z,8.20
2023-01-08T04:31:27.673Z,8.20
2023-01-08T04:33:35.158Z,8.10
2023-01-08T04:35:40.294Z,8.10
2023-01-08T04:37:45.181Z,8.10
2023-01-08T04:39:50.186Z,8.00
2023-01-08T04:41:55.116Z,8.00
2023-01-08T04:44:00.032Z,8.00
2023-01-08T04:46:08.486Z,8.10
2023-01-08T04:48:13.577Z,8.00
2023-01-08T04:50:21.242Z,8.00
2023-01-08T04:52:26.328Z,8.00
2023-01-08T04:54:31.190Z,8.00
2023-01-08T04:56:36.185Z,8.00
2023-01-08T04:58:42.405Z,8.00
2023-01-08T05:00:47.378Z,8.00
2023-01-08T05:02:52.360Z,8.00
2023-01-08T05:04:57.650Z,8.00
2023-01-08T05:07:06.339Z,8.00
2023-01-08T05:09:12.453Z,8.00
2023-01-08T05:11:17.448Z,8.00
2023-01-08T05:13:22.316Z,7.90
2023-01-08T05:15:27.300Z,7.90
2023-01-08T05:17:32.264Z,7.90
2023-01-08T05:19:38.417Z,7.90
2023-01-08T05:21:43.413Z,7.90
2023-01-08T05:23:51.860Z,8.00
2023-01-08T05:25:59.779Z,7.90
2023-01-08T05:28:05.042Z,7.90
2023-01-08T05:30:12.081Z,7.90
2023-01-08T05:32:20.672Z,7.90
2023-01-08T05:34:25.530Z,7.90
2023-01-08T05:36:31.158Z,7.90
2023-01-08T05:38:36.415Z,7.90
2023-01-08T05:40:44.681Z,7.90
2023-01-08T05:42:50.432Z,7.90
2023-01-08T05:44:55.281Z,7.90
2023-01-08T05:47:00.252Z,7.80
2023-01-08T05:49:05.525Z,7.80
2023-01-08T05:51:10.420Z,7.80
2023-01-08T05:53:15.552Z,7.80
2023-01-08T05:55:20.583Z,7.80
2023-01-08T05:57:28.077Z,7.80
2023-01-08T05:59:33.217Z,7.80
2023-01-08T06:01:38.176Z,7.80
2023-01-08T06:03:43.832Z,7.80
2023-01-08T06:05:48.717Z,7.80
2023-01-08T06:07:53.691Z,7.80
2023-01-08T06:09:58.902Z,7.80
2023-01-08T06:12:03.875Z,7.80
2023-01-08T06:14:11.703Z,7.80
2023-01-08T06:16:17.585Z,7.80
2023-01-08T06:18:23.068Z,7.80
2023-01-08T06:20:27.979Z,7.80
2023-01-08T06:22:33.640Z,7.80
2023-01-08T06:24:38.637Z,7.80
2023-01-08T06:26:43.505Z,7.80
2023-01-08T06:28:48.361Z,7.80
2023-01-08T06:30:56.251Z,7.80
2023-01-08T06:33:02.616Z,7.70
2023-01-08T06:35:08.745Z,7.70
2023-01-08T06:37:13.988Z,7.70
2023-01-08T06:39:19.727Z,7.70
2023-01-08T06:41:25.057Z,7.70
2023-01-08T06:43:30.505Z,7.70
2023-01-08T06:45:36.023Z,7.60
2023-01-08T06:47:44.363Z,7.60
2023-01-08T06:49:49.289Z,7.70
2023-01-08T06:51:54.637Z,7.70
2023-01-08T06:53:59.933Z,7.60
2023-01-08T06:56:09.382Z,7.60
2023-01-08T06:58:15.234Z,7.60
2023-01-08T07:00:22.854Z,7.70
2023-01-08T07:02:27.862Z,7.70
2023-01-08T07:04:36.103Z,7.70
2023-01-08T07:06:40.968Z,7.70
2023-01-08T07:08:47.256Z,7.70
2023-01-08T07:10:52.965Z,7.70
2023-01-08T07:12:57.839Z,7.70
2023-01-08T07:15:03.055Z,7.70
2023-01-08T07:17:07.947Z,7.70
2023-01-08T07:19:16.477Z,7.70
2023-01-08T07:21:24.004Z,7.70
2023-01-08T07:23:28.917Z,7.70
2023-01-08T07:25:34.601Z,7.70
2023-01-08T07:27:39.499Z,7.60
2023-01-08T07:29:44.400Z,7.70
2023-01-08T07:31:49.552Z,7.60
2023-01-08T07:33:54.800Z,7.60
2023-01-08T07:36:00.630Z,7.60
2023-01-08T07:38:08.630Z,7.60
2023-01-08T07:40:14.823Z,7.60
2023-01-08T07:42:19.750Z,7.60
2023-01-08T07:44:25.556Z,7.60
2023-01-08T07:46:30.466Z,7.60
2023-01-08T07:48:35.569Z,7.60
2023-01-08T07:50:41.446Z,7.60
2023-01-08T07:52:48.687Z,7.60
2023-01-08T07:54:56.164Z,7.50
2023-01-08T07:57:01.090Z,7.60
2023-01-08T07:59:06.143Z,7.60
2023-01-08T08:01:13.982Z,7.60
2023-01-08T08:03:19.132Z,7.60
2023-01-08T08:05:24.643Z,7.60
2023-01-08T08:07:29.509Z,7.60
2023-01-08T08:09:34.560Z,7.60
2023-01-08T08:11:42.609Z,7.60
2023-01-08T08:13:47.644Z,7.60
2023-01-08T08:15:52.924Z,7.60
2023-01-08T08:17:58.359Z,7.60
2023-01-08T08:20:03.338Z,7.60
2023-01-08T08:22:30.545Z,7.60
2023-01-08T08:24:35.502Z,7.60
2023-01-08T08:26:43.088Z,7.60
2023-01-08T08:28:48.204Z,7.60
2023-01-08T08:30:55.292Z,7.60
2023-01-08T08:33:03.555Z,7.60
2023-01-08T08:35:10.024Z,7.60
2023-01-08T08:37:15.313Z,7.60
2023-01-08T08:39:20.527Z,7.60
2023-01-08T08:41:25.529Z,7.60
2023-01-08T08:43:33.075Z,7.60
2023-01-08T08:45:38.117Z,7.70
2023-01-08T08:47:43.105Z,7.70
2023-01-08T08:49:48.640Z,7.70
2023-01-08T08:51:53.614Z,7.70
2023-01-08T08:54:00.924Z,7.70
2023-01-08T08:56:06.187Z,7.70
2023-01-08T08:58:14.578Z,7.80
2023-01-08T09:00:23.451Z,7.70
2023-01-08T09:02:29.044Z,7.70
2023-01-08T09:04:35.068Z,7.70
2023-01-08T09:06:40.325Z,7.80
2023-01-08T09:08:45.278Z,7.80
2023-01-08T09:10:50.349Z,7.80
2023-01-08T09:12:56.825Z,7.80
2023-01-08T09:15:01.749Z,7.80
2023-01-08T09:17:09.269Z,7.80
2023-01-08T09:19:14.433Z,7.80
2023-01-08T09:21:19.734Z,7.90
2023-01-08T09:23:24.721Z,7.80
2023-01-08T09:25:30.270Z,7.90
2023-01-08T09:27:35.195Z,7.90
2023-01-08T09:29:40.145Z,7.80
2023-01-08T09:31:45.729Z,7.90
2023-01-08T09:33:53.714Z,7.90
2023-01-08T09:35:58.481Z,7.80
2023-01-08T09:38:03.503Z,7.80
2023-01-08T09:40:13.069Z,7.80
2023-01-08T09:42:18.869Z,7.80
2023-01-08T09:44:27.054Z,7.80
2023-01-08T09:46:32.396Z,7.80
2023-01-08T09:48:40.951Z,7.80
2023-01-08T09:50:50.634Z,7.80
2023-01-08T09:52:56.034Z,7.90
2023-01-08T09:55:01.408Z,7.90
2023-01-08T09:57:07.043Z,7.90
2023-01-08T09:59:19.233Z,7.90
2023-01-08T10:01:27.136Z,7.90
2023-01-08T10:03:39.361Z,7.90
2023-01-08T10:05:44.924Z,7.90
2023-01-08T10:07:52.504Z,8.00
2023-01-08T10:09:58.576Z,8.00
2023-01-08T10:12:07.454Z,8.00
2023-01-08T10:14:25.263Z,8.00
2023-01-08T10:16:36.225Z,8.00
2023-01-08T10:18:41.913Z,8.00
2023-01-08T10:20:46.867Z,8.00
2023-01-08T10:22:57.050Z,7.90
2023-01-08T10:25:10.840Z,8.00
2023-01-08T10:27:19.610Z,8.00
2023-01-08T10:29:24.559Z,8.00
2023-01-08T10:31:29.668Z,8.00
2023-01-08T10:33:43.697Z,8.00
2023-01-08T10:35:58.274Z,8.00
2023-01-08T10:38:06.542Z,8.00
2023-01-08T10:40:37.316Z,8.10
2023-01-08T10:42:43.004Z,8.10
2023-01-08T10:45:01.049Z,8.10
2023-01-08T10:47:08.806Z,8.10
2023-01-08T10:49:21.908Z,8.10
2023-01-08T10:51:30.203Z,8.20
2023-01-08T10:53:37.718Z,8.20
2023-01-08T10:55:42.692Z,8.20
2023-01-08T10:57:58.842Z,8.20
2023-01-08T11:00:04.921Z,8.20
2023-01-08T11:02:35.311Z,8.20
2023-01-08T11:04:42.228Z,8.20
2023-01-08T11:06:50.570Z,8.20
2023-01-08T11:09:02.444Z,8.20
2023-01-08T11:11:10.832Z,8.20
2023-01-08T11:13:22.174Z,8.20
2023-01-08T11:15:33.614Z,8.20
2023-01-08T11:17:38.986Z,8.30
2023-01-08T11:19:44.023Z,8.30
2023-01-08T11:21:59.694Z,8.30
2023-01-08T11:24:19.194Z,8.30
2023-01-08T11:26:25.939Z,8.30
2023-01-08T11:28:45.410Z,8.30
2023-01-08T11:31:01.098Z,8.30
2023-01-08T11:33:12.631Z,8.30
2023-01-08T11:35:22.796Z,8.40
2023-01-08T11:37:31.258Z,8.40
2023-01-08T11:39:45.571Z,8.40
2023-01-08T11:42:30.349Z,8.40
2023-01-08T11:44:50.981Z,8.40
2023-01-08T11:47:07.819Z,8.40
2023-01-08T11:49:47.262Z,8.40
2023-01-08T11:52:31.715Z,8.50
2023-01-08T11:55:00.223Z,8.50
2023-01-08T11:57:26.102Z,8.50
2023-01-08T11:59:38.874Z,8.50
2023-01-08T12:02:00.011Z,8.50
2023-01-08T12:04:38.923Z,8.40
2023-01-08T12:06:51.266Z,8.40
2023-01-08T12:09:11.298Z,8.40
2023-01-08T12:11:28.568Z,8.40
2023-01-08T12:13:55.591Z,8.40
2023-01-08T12:16:20.439Z,8.40
2023-01-08T12:19:00.129Z,8.50
2023-01-08T12:21:15.708Z,8.60
2023-01-08T12:23:40.276Z,8.60
2023-01-08T12:26:07.085Z,8.70
2023-01-08T12:28:33.548Z,8.70
2023-01-08T12:30:54.347Z,8.60
2023-01-08T12:33:05.594Z,8.60
2023-01-08T12:35:17.204Z,8.50
2023-01-08T12:37:31.664Z,8.60
2023-01-08T12:39:48.734Z,8.50
2023-01-08T12:41:59.349Z,8.60
2023-01-08T12:44:10.291Z,8.60
2023-01-08T12:46:18.228Z,8.60
2023-01-08T12:48:29.569Z,8.60
2023-01-08T12:50:54.205Z,8.70
2023-01-08T12:53:05.370Z,8.70
2023-01-08T12:55:25.217Z,8.70
2023-01-08T12:57:37.099Z,8.80
2023-01-08T12:59:50.634Z,8.80
2023-01-08T13:02:02.804Z,8.90
2023-01-08T13:04:10.925Z,8.90
2023-01-08T13:06:19.691Z,9.00
2023-01-08T13:08:35.916Z,9.00
2023-01-08T13:10:43.409Z,9.00
2023-01-08T13:12:55.535Z,8.90
2023-01-08T13:15:03.544Z,8.90
2023-01-08T13:17:18.848Z,8.90
2023-01-08T13:19:30.313Z,8.90
2023-01-08T13:21:39.449Z,9.00
2023-01-08T13:23:44.416Z,9.00
2023-01-08T13:25:55.745Z,9.00
2023-01-08T13:28:01.261Z,9.00
2023-01-08T13:30:40.961Z,9.00
2023-01-08T13:32:48.617Z,9.00
2023-01-08T13:35:34.620Z,9.00
2023-01-08T13:37:39.605Z,8.90
2023-01-08T13:39:44.505Z,8.90
2023-01-08T13:42:02.811Z,8.90
2023-01-08T13:44:17.141Z,8.80
2023-01-08T13:46:25.511Z,8.80
2023-01-08T13:48:35.112Z,8.80
2023-01-08T13:50:40.731Z,8.80
2023-01-08T13:52:50.150Z,8.80
2023-01-08T13:54:55.623Z,8.80
2023-01-08T13:57:09.862Z,8.80
2023-01-08T13:59:37.217Z,8.90
2023-01-08T14:01:55.864Z,8.90
2023-01-08T14:04:01.307Z,9.00
2023-01-08T14:06:16.236Z,9.10
2023-01-08T14:08:28.095Z,9.10
2023-01-08T14:10:33.592Z,9.10
2023-01-08T14:12:39.153Z,9.10
2023-01-08T14:14:50.493Z,9.00
2023-01-08T14:16:59.007Z,9.00
2023-01-08T14:19:07.442Z,9.00
2023-01-08T14:21:13.315Z,9.00
2023-01-08T14:23:27.708Z,8.90
2023-01-08T14:25:33.259Z,8.90
2023-01-08T14:27:38.411Z,8.90
2023-01-08T14:29:48.345Z,8.90
2023-01-08T14:31:58.578Z,8.90
2023-01-08T14:34:03.797Z,8.90
2023-01-08T14:36:14.818Z,8.90
2023-01-08T14:38:20.625Z,8.90
2023-01-08T14:40:33.616Z,8.90
2023-01-08T14:42:47.361Z,8.90
2023-01-08T14:44:58.021Z,8.90
2023-01-08T14:47:06.134Z,8.80
2023-01-08T14:49:25.226Z,8.80
2023-01-08T14:51:33.559Z,8.80
2023-01-08T14:53:40.985Z,8.80
2023-01-08T14:55:50.631Z,8.80
2023-01-08T14:57:57.992Z,8.80
2023-01-08T15:00:05.189Z,8.80
2023-01-08T15:02:29.192Z,8.80
2023-01-08T15:04:34.867Z,8.80
2023-01-08T15:06:40.402Z,8.80
2023-01-08T15:08:47.157Z,8.90
2023-01-08T15:11:03.350Z,8.90
2023-01-08T15:13:10.116Z,8.80
2023-01-08T15:15:25.382Z,8.80
2023-01-08T15:17:32.963Z,8.80
2023-01-08T15:19:48.423Z,8.80
2023-01-08T15:21:57.654Z,8.80
2023-01-08T15:24:05.182Z,8.80
2023-01-08T15:26:14.370Z,8.80
2023-01-08T15:28:21.718Z,8.80
2023-01-08T15:30:37.525Z,8.80
2023-01-08T15:32:45.138Z,8.80
2023-01-08T15:34:50.290Z,8.80
2023-01-08T15:36:55.263Z,8.80
2023-01-08T15:39:00.225Z,8.80
2023-01-08T15:41:05.156Z,8.70
2023-01-08T15:43:11.240Z,8.70
2023-01-08T15:45:18.458Z,8.70
2023-01-08T15:47:23.415Z,8.70
2023-01-08T15:49:31.273Z,8.70
2023-01-08T15:51:40.032Z,8.70
2023-01-08T15:53:44.990Z,8.70
2023-01-08T15:55:49.909Z,8.70
2023-01-08T15:57:55.951Z,8.60
2023-01-08T16:00:02.533Z,8.60
2023-01-08T16:02:12.874Z,8.60
2023-01-08T16:04:18.269Z,8.60
2023-01-08T16:06:25.921Z,8.60
2023-01-08T16:08:30.873Z,8.50
2023-01-08T16:10:37.299Z,8.50
2023-01-08T16:12:43.473Z,8.50
2023-01-08T16:14:48.517Z,8.60
2023-01-08T16:16:53.446Z,8.50
2023-01-08T16:18:58.395Z,8.50
2023-01-08T16:21:04.083Z,8.50
2023-01-08T16:23:11.871Z,8.50
2023-01-08T16:25:18.147Z,8.60
2023-01-08T16:27:23.117Z,8.60
2023-01-08T16:29:28.102Z,8.60
2023-01-08T16:31:33.087Z,8.50
2023-01-08T16:33:39.145Z,8.50
2023-01-08T16:35:44.086Z,8.50
2023-01-08T16:37:49.517Z,8.50
2023-01-08T16:39:57.316Z,8.50
2023-01-08T16:42:05.018Z,8.50
2023-01-08T16:44:09.978Z,8.40
2023-01-08T16:46:18.492Z,8.50
2023-01-08T16:48:24.310Z,8.50
2023-01-08T16:50:29.278Z,8.50
2023-01-08T16:52:34.371Z,8.50
2023-01-08T16:54:39.899Z,8.50
2023-01-08T16:56:47.804Z,8.50
2023-01-08T16:58:53.419Z,8.50
2023-01-08T17:00:59.010Z,8.50
2023-01-08T17:03:04.667Z,8.50
2023-01-08T17:05:13.520Z,8.40
2023-01-08T17:07:21.068Z,8.50
2023-01-08T17:09:26.149Z,8.50
2023-01-08T17:11:32.232Z,8.50
2023-01-08T17:13:40.283Z,8.50
2023-01-08T17:15:45.157Z,8.50
2023-01-08T17:17:50.956Z,8.50
2023-01-08T17:20:00.863Z,8.50
2023-01-08T17:22:05.773Z,8.50
2023-01-08T17:24:11.901Z,8.50
2023-01-08T17:26:20.290Z,8.50
2023-01-08T17:28:28.534Z,8.50
2023-01-08T17:30:36.058Z,8.50
2023-01-08T17:32:41.307Z,8.50
2023-01-08T17:34:46.293Z,8.50
2023-01-08T17:36:51.507Z,8.50
2023-01-08T17:38:57.037Z,8.50
2023-01-08T17:41:03.933Z,8.50
2023-01-08T17:43:09.145Z,8.50
2023-01-08T17:45:15.042Z,8.50
2023-01-08T17:47:22.715Z,8.50
2023-01-08T17:49:27.712Z,8.50
2023-01-08T17:51:33.578Z,8.50
2023-01-08T17:53:38.533Z,8.50
2023-01-08T17:55:43.995Z,8.50
2023-01-08T17:57:49.144Z,8.50
2023-01-08T17:59:54.104Z,8.50
2023-01-08T18:01:59.367Z,8.50
2023-01-08T18:04:07.536Z,8.50
2023-01-08T18:06:14.818Z,8.50
2023-01-08T18:08:25.741Z,8.50
2023-01-08T18:10:30.722Z,8.40
2023-01-08T18:12:35.684Z,8.40
2023-01-08T18:14:41.631Z,8.30
2023-01-08T18:16:47.955Z,8.40
2023-01-08T18:18:53.093Z,8.40
2023-01-08T18:21:01.593Z,8.30
2023-01-08T18:23:06.514Z,8.30
2023-01-08T18:25:12.747Z,8.30
2023-01-08T18:27:17.671Z,8.30
2023-01-08T18:29:22.589Z,8.30
2023-01-08T18:31:27.636Z,8.30
2023-01-08T18:33:32.555Z,8.40
2023-01-08T18:35:37.518Z,8.40
2023-01-08T18:37:45.429Z,8.40
2023-01-08T18:39:50.461Z,8.40
2023-01-08T18:42:08.157Z,8.30
2023-01-08T18:44:12.994Z,8.30
2023-01-08T18:46:17.906Z,8.30
2023-01-08T18:48:23.491Z,8.30
2023-01-08T18:50:28.732Z,8.30
2023-01-08T18:52:34.166Z,8.20
2023-01-08T18:54:42.881Z,8.30
2023-01-08T18:56:48.110Z,8.20
2023-01-08T18:58:54.106Z,8.20
2023-01-08T19:01:04.441Z,8.20
2023-01-08T19:03:09.520Z,8.20
2023-01-08T19:05:14.589Z,8.20
2023-01-08T19:07:20.681Z,8.20
2023-01-08T19:09:26.323Z,8.20
2023-01-08T19:11:33.878Z,8.20
2023-01-08T19:13:39.084Z,8.30
2023-01-08T19:15:43.993Z,8.20
2023-01-08T19:17:49.046Z,8.20
2023-01-08T19:19:53.966Z,8.20
2023-01-08T19:21:59.875Z,8.20
2023-01-08T19:24:04.789Z,8.20
2023-01-08T19:26:10.716Z,8.20
2023-01-08T19:28:18.522Z,8.20
2023-01-08T19:30:23.662Z,8.20
2023-01-08T19:32:28.654Z,8.20
2023-01-08T19:34:33.569Z,8.20
2023-01-08T19:36:39.399Z,8.20
2023-01-08T19:38:45.368Z,8.20
2023-01-08T19:40:50.710Z,8.20
2023-01-08T19:43:08.172Z,8.20
2023-01-08T19:45:16.873Z,8.20
2023-01-08T19:47:21.839Z,8.20
2023-01-08T19:49:26.747Z,8.20
2023-01-08T19:51:36.217Z,8.20
2023-01-08T19:53:41.209Z,8.20
2023-01-08T19:55:46.107Z,8.30
2023-01-08T19:57:51.367Z,8.20
2023-01-08T19:59:56.530Z,8.20
2023-01-08T20:02:04.177Z,8.20
2023-01-08T20:04:09.199Z,8.20
2023-01-08T20:06:19.816Z,8.20
2023-01-08T20:08:25.103Z,8.20
2023-01-08T20:10:30.478Z,8.20
2023-01-08T20:12:35.463Z,8.20
2023-01-08T20:14:40.749Z,8.20
2023-01-08T20:16:45.674Z,8.20
2023-01-08T20:18:53.365Z,8.10
2023-01-08T20:21:07.009Z,8.10
2023-01-08T20:23:12.135Z,8.00
2023-01-08T20:25:18.307Z,8.00
2023-01-08T20:27:23.233Z,8.00
2023-01-08T20:29:28.632Z,7.90
2023-01-08T20:31:34.606Z,7.90
2023-01-08T20:33:41.063Z,7.90
2023-01-08T20:35:48.570Z,7.90
2023-01-08T20:37:54.260Z,7.90
2023-01-08T20:39:59.224Z,7.90
2023-01-08T20:42:05.143Z,7.90
2023-01-08T20:44:10.546Z,7.90
2023-01-08T20:46:16.405Z,7.90
2023-01-08T20:48:21.483Z,7.90
2023-01-08T20:50:26.540Z,7.90
2023-01-08T20:52:35.063Z,7.90
2023-01-08T20:54:42.124Z,8.00
2023-01-08T20:56:48.008Z,8.00
2023-01-08T20:58:54.384Z,7.90
2023-01-08T21:01:07.324Z,8.00
2023-01-08T21:03:13.514Z,7.90
2023-01-08T21:05:18.684Z,7.90
2023-01-08T21:07:23.632Z,7.90
2023-01-08T21:09:31.174Z,7.90
2023-01-08T21:11:38.224Z,8.00
2023-01-08T21:13:43.778Z,7.90
2023-01-08T21:15:48.982Z,8.00
2023-01-08T21:17:54.160Z,8.00
2023-01-08T21:19:59.144Z,8.00
2023-01-08T21:22:04.111Z,8.00
2023-01-08T21:24:11.882Z,8.00
2023-01-08T21:26:20.619Z,8.00
2023-01-08T21:28:25.932Z,8.00
2023-01-08T21:30:31.093Z,8.00
2023-01-08T21:32:38.849Z,8.00
2023-01-08T21:34:44.591Z,7.90
2023-01-08T21:36:49.594Z,7.90
2023-01-08T21:38:55.413Z,7.90
2023-01-08T21:41:07.389Z,7.90
2023-01-08T21:46:06.805Z,7.90
2023-01-08T21:48:12.838Z,7.80
2023-01-08T21:50:18.594Z,7.80
2023-01-08T21:52:36.460Z,7.80
2023-01-08T21:54:41.930Z,7.80
2023-01-08T21:56:47.256Z,7.80
2023-01-08T21:58:52.233Z,7.80
2023-01-08T22:00:58.576Z,7.80
2023-01-08T22:03:09.214Z,7.80
2023-01-08T22:05:18.250Z,7.80
2023-01-08T22:07:23.785Z,7.80
2023-01-08T22:09:29.653Z,7.80
2023-01-08T22:11:37.091Z,7.80
2023-01-08T22:13:42.389Z,7.80
2023-01-08T22:15:47.371Z,7.80
2023-01-08T22:17:53.234Z,7.80
2023-01-08T22:20:03.383Z,7.80
2023-01-08T22:22:10.900Z,7.80
2023-01-08T22:24:16.002Z,7.80
2023-01-08T22:26:22.516Z,7.80
2023-01-08T22:28:28.786Z,7.80
2023-01-08T22:30:33.934Z,7.80
2023-01-08T22:32:38.985Z,7.80
2023-01-08T22:34:44.427Z,7.80
2023-01-08T22:36:53.500Z,7.80
2023-01-08T22:38:59.840Z,7.80
2023-01-08T22:41:10.190Z,7.80
2023-01-08T22:43:15.296Z,7.80
2023-01-08T22:45:21.037Z,7.90
2023-01-08T22:47:28.122Z,7.80
2023-01-08T22:49:36.673Z,7.90
2023-01-08T22:51:42.986Z,7.80
2023-01-08T22:53:52.150Z,7.90
2023-01-08T22:55:58.545Z,7.80
2023-01-08T22:58:03.551Z,7.90
2023-01-08T23:00:12.542Z,7.90
2023-01-08T23:02:24.584Z,7.90
2023-01-08T23:04:29.741Z,7.90
2023-01-08T23:06:35.889Z,7.90
2023-01-08T23:08:41.911Z,7.90
2023-01-08T23:10:49.856Z,7.90
2023-01-08T23:12:56.341Z,7.90
2023-01-08T23:15:01.263Z,7.90
2023-01-08T23:17:06.222Z,7.90
2023-01-08T23:19:11.858Z,8.00
2023-01-08T23:21:19.244Z,8.00
2023-01-08T23:23:24.476Z,7.90
2023-01-08T23:25:32.016Z,8.00
2023-01-08T23:27:39.557Z,8.00
2023-01-08T23:29:44.879Z,8.00
2023-01-08T23:31:50.309Z,7.90
2023-01-08T23:33:56.699Z,7.80
2023-01-08T23:36:01.638Z,7.90
2023-01-08T23:38:07.072Z,7.90
2023-01-08T23:40:14.815Z,7.90
2023-01-08T23:42:23.069Z,7.90
2023-01-08T23:44:30.607Z,7.90
2023-01-08T23:46:36.240Z,7.90
2023-01-08T23:48:41.311Z,7.90
2023-01-08T23:50:46.316Z,7.90
2023-01-08T23:52:51.303Z,7.90
2023-01-08T23:54:56.432Z,7.90
2023-01-08T23:57:01.690Z,7.90
2023-01-08T23:59:07.479Z,7.90
